Time;durP1;ratioP1;P1;durP2;ratioP2;P2;SDS_P1;SDS_P2;PMS_P1;PMS_P2;Temp;Humidity;BMP_temperature;BMP_pressure;BME280_temperature;BME280_humidity;BME280_pressure;Samples;Min_cycle;Max_cycle;Signal;HPM_P1;HPM_P2
2021/08/28 00:00:52;;;;;;;10.35;2.42;;;15.70;99.90;;;;;;5015680;28;20167;-86
2021/08/28 00:03:19;;;;;;;11.35;2.15;;;15.80;99.90;;;;;;5015631;28;20584;-86
2021/08/28 00:05:45;;;;;;;9.65;2.72;;;15.80;99.90;;;;;;5015714;28;20255;-86
2021/08/28 00:08:11;;;;;;;7.82;2.47;;;15.80;99.90;;;;;;5015404;28;20223;-86
2021/08/28 00:10:37;;;;;;;8.15;2.38;;;15.80;99.90;;;;;;5016521;28;20196;-86
2021/08/28 00:13:03;;;;;;;7.47;2.33;;;15.80;99.90;;;;;;5014592;28;20274;-86
2021/08/28 00:15:29;;;;;;;7.47;2.78;;;15.70;99.90;;;;;;5015201;28;20229;-86
2021/08/28 00:17:55;;;;;;;8.32;2.88;;;15.70;99.90;;;;;;5015275;28;20271;-86
2021/08/28 00:20:21;;;;;;;16.00;2.33;;;15.70;99.90;;;;;;5014800;28;20181;-86
2021/08/28 00:22:46;;;;;;;6.30;3.00;;;15.80;99.90;;;;;;5015916;28;20168;-86
2021/08/28 00:25:12;;;;;;;4.07;2.38;;;15.80;99.90;;;;;;5014740;28;20548;-86
2021/08/28 00:27:39;;;;;;;7.32;2.72;;;15.70;99.90;;;;;;5015680;28;20663;-85
2021/08/28 00:30:05;;;;;;;6.70;3.45;;;15.80;99.90;;;;;;5014826;28;20172;-86
2021/08/28 00:32:31;;;;;;;10.73;2.90;;;15.90;99.90;;;;;;5014654;28;20296;-86
2021/08/28 00:34:57;;;;;;;5.90;2.97;;;15.80;99.90;;;;;;5014526;28;20174;-85
2021/08/28 00:37:22;;;;;;;7.57;2.90;;;15.70;99.90;;;;;;5014836;28;20188;-86
2021/08/28 00:39:48;;;;;;;18.42;3.17;;;15.60;99.90;;;;;;5014535;28;20624;-86
2021/08/28 00:42:14;;;;;;;7.45;2.83;;;15.70;99.90;;;;;;5014245;28;20169;-86
2021/08/28 00:44:41;;;;;;;7.28;3.25;;;15.60;99.90;;;;;;5014411;28;20602;-86
2021/08/28 00:47:07;;;;;;;9.40;3.28;;;15.60;99.90;;;;;;5014242;28;20556;-85
2021/08/28 00:49:32;;;;;;;14.60;3.25;;;15.80;99.90;;;;;;5014430;28;20164;-86
2021/08/28 00:52:03;;;;;;;4.93;3.17;;;15.80;99.90;;;;;;5014754;28;20224;-85
2021/08/28 00:54:36;;;;;;;4.57;2.53;;;15.80;99.90;;;;;;5014537;28;20188;-86
2021/08/28 00:57:02;;;;;;;9.48;3.22;;;15.80;99.90;;;;;;5014161;28;20188;-86
2021/08/28 00:59:28;;;;;;;10.70;3.38;;;15.70;99.90;;;;;;5015489;28;20169;-86
2021/08/28 01:01:54;;;;;;;10.52;3.95;;;15.70;99.90;;;;;;5014345;28;20175;-85
2021/08/28 01:04:21;;;;;;;6.85;3.10;;;15.80;99.90;;;;;;5014226;28;20663;-86
2021/08/28 01:07:00;;;;;;;15.75;4.50;;;15.80;99.90;;;;;;5014336;28;20188;-86
2021/08/28 01:09:30;;;;;;;9.80;3.33;;;15.90;99.90;;;;;;5014432;28;20179;-86
2021/08/28 01:12:06;;;;;;;11.63;3.53;;;16.00;99.90;;;;;;5014024;28;20208;-86
2021/08/28 01:14:34;;;;;;;9.60;3.53;;;16.10;99.90;;;;;;5013823;28;20168;-86
2021/08/28 01:17:07;;;;;;;9.55;3.25;;;16.20;99.90;;;;;;5013910;28;20238;-86
2021/08/28 01:19:54;;;;;;;7.25;3.83;;;16.40;99.90;;;;;;5014219;28;20172;-86
2021/08/28 01:22:20;;;;;;;12.85;4.30;;;16.50;99.90;;;;;;5013689;28;20221;-86
2021/08/28 01:24:47;;;;;;;11.85;3.80;;;16.40;99.90;;;;;;5013914;28;20571;-86
2021/08/28 01:27:31;;;;;;;6.35;4.20;;;16.30;99.90;;;;;;5019450;28;20208;-86
2021/08/28 01:29:59;;;;;;;8.85;3.53;;;16.10;99.90;;;;;;5015431;28;20172;-86
2021/08/28 01:32:27;;;;;;;7.97;3.25;;;16.20;99.90;;;;;;5013880;28;20290;-86
2021/08/28 01:34:55;;;;;;;11.10;4.30;;;16.30;99.90;;;;;;5014156;28;20168;-86
2021/08/28 01:37:21;;;;;;;8.30;3.72;;;16.20;99.90;;;;;;5013684;28;20283;-86
2021/08/28 01:39:48;;;;;;;10.20;3.58;;;16.20;99.90;;;;;;5013782;28;20164;-86
2021/08/28 01:42:14;;;;;;;10.05;3.63;;;16.20;99.90;;;;;;5013296;28;20255;-86
2021/08/28 01:44:45;;;;;;;8.70;3.28;;;16.30;99.90;;;;;;5013132;28;20176;-86
2021/08/28 01:47:12;;;;;;;11.15;3.95;;;16.30;99.90;;;;;;5013278;28;20268;-86
2021/08/28 01:49:40;;;;;;;8.40;3.60;;;16.40;99.90;;;;;;5013315;28;20187;-86
2021/08/28 01:52:06;;;;;;;10.38;3.30;;;16.30;99.90;;;;;;5013068;28;20200;-86
2021/08/28 01:54:32;;;;;;;14.55;3.47;;;16.20;99.90;;;;;;5014392;28;20271;-87
2021/08/28 01:56:58;;;;;;;13.00;3.47;;;16.30;99.90;;;;;;5013176;28;20180;-87
2021/08/28 01:59:24;;;;;;;13.13;3.05;;;16.30;99.90;;;;;;5013313;28;20223;-86
2021/08/28 02:01:50;;;;;;;13.85;3.38;;;16.30;99.90;;;;;;5013468;28;20238;-86
2021/08/28 02:04:15;;;;;;;8.45;3.53;;;16.30;99.90;;;;;;5013429;28;20707;-86
2021/08/28 02:06:57;;;;;;;9.20;4.55;;;16.40;99.90;;;;;;5013206;28;20275;-86
2021/08/28 02:09:46;;;;;;;7.40;3.38;;;16.40;99.90;;;;;;5012863;28;20168;-86
2021/08/28 02:12:15;;;;;;;13.07;3.50;;;16.40;99.90;;;;;;5012777;28;20226;-86
2021/08/28 02:15:04;;;;;;;15.18;6.10;;;16.30;99.90;;;;;;5012658;28;20168;-86
2021/08/28 02:17:30;;;;;;;18.63;4.10;;;16.20;99.90;;;;;;5012582;28;20192;-86
2021/08/28 02:20:00;;;;;;;17.23;4.63;;;16.00;99.90;;;;;;5012471;28;20204;-87
2021/08/28 02:22:28;;;;;;;10.18;5.07;;;16.00;99.90;;;;;;5012490;28;20168;-86
2021/08/28 02:25:02;;;;;;;14.27;5.35;;;16.00;99.90;;;;;;5012132;28;20171;-85
2021/08/28 02:27:38;;;;;;;11.30;4.82;;;16.10;99.90;;;;;;5013411;28;20204;-86
2021/08/28 02:30:07;;;;;;;10.05;5.15;;;16.20;99.90;;;;;;5012523;28;20326;-86
2021/08/28 02:32:34;;;;;;;11.68;4.63;;;16.30;99.90;;;;;;5011681;28;20691;-86
2021/08/28 02:35:02;;;;;;;10.07;4.65;;;16.30;99.90;;;;;;5011859;28;20179;-86
2021/08/28 02:37:33;;;;;;;8.43;3.83;;;16.40;99.90;;;;;;5012291;28;20213;-86
2021/08/28 02:40:01;;;;;;;15.07;5.18;;;16.40;99.90;;;;;;5012463;28;20180;-86
2021/08/28 02:42:27;;;;;;;11.38;3.78;;;16.40;99.90;;;;;;5012304;28;20529;-86
2021/08/28 02:44:54;;;;;;;13.60;5.20;;;16.50;99.90;;;;;;5012284;28;20515;-86
2021/08/28 02:47:22;;;;;;;13.70;4.93;;;16.50;99.90;;;;;;5011973;28;20189;-86
2021/08/28 02:49:50;;;;;;;14.82;4.95;;;16.40;99.90;;;;;;5013279;28;20256;-86
2021/08/28 02:52:19;;;;;;;15.63;5.15;;;16.40;99.90;;;;;;5011869;28;20210;-85
2021/08/28 02:54:46;;;;;;;17.45;4.70;;;16.40;99.90;;;;;;5012140;28;20663;-86
2021/08/28 02:57:14;;;;;;;29.92;6.25;;;16.50;99.90;;;;;;5011824;28;20203;-86
2021/08/28 02:59:41;;;;;;;10.43;5.30;;;16.50;99.90;;;;;;5012073;28;20168;-86
2021/08/28 03:02:08;;;;;;;12.32;5.13;;;16.50;99.90;;;;;;5012155;28;20196;-86
2021/08/28 03:04:35;;;;;;;11.90;5.30;;;16.40;99.90;;;;;;5012039;28;20310;-86
2021/08/28 03:07:02;;;;;;;12.73;5.95;;;16.50;99.90;;;;;;5011642;28;20188;-86
2021/08/28 03:09:28;;;;;;;9.57;4.80;;;16.60;99.90;;;;;;5011860;28;20263;-86
2021/08/28 03:11:56;;;;;;;21.70;5.07;;;16.50;99.90;;;;;;5013207;28;20323;-87
2021/08/28 03:14:23;;;;;;;8.75;5.25;;;16.40;99.90;;;;;;5012115;28;20624;-86
2021/08/28 03:16:51;;;;;;;9.25;4.88;;;16.30;99.90;;;;;;5011791;28;20189;-86
2021/08/28 03:19:22;;;;;;;10.43;5.68;;;16.30;99.90;;;;;;5011960;28;20173;-86
2021/08/28 03:21:47;;;;;;;12.48;4.97;;;16.30;99.90;;;;;;5011801;28;20168;-86
2021/08/28 03:24:16;;;;;;;12.20;5.35;;;16.40;99.90;;;;;;5011894;28;20187;-86
2021/08/28 03:26:42;;;;;;;16.83;6.00;;;16.30;99.90;;;;;;5027579;28;20272;-86
2021/08/28 03:29:08;;;;;;;14.05;6.72;;;16.40;99.90;;;;;;5036380;28;20207;-86
2021/08/28 03:31:35;;;;;;;10.18;5.30;;;16.40;99.90;;;;;;5039036;28;20204;-86
2021/08/28 03:34:01;;;;;;;23.55;6.50;;;16.40;99.90;;;;;;5039794;28;20183;-86
2021/08/28 03:36:27;;;;;;;20.85;6.75;;;16.50;99.90;;;;;;5039767;28;20156;-85
2021/08/28 03:38:53;;;;;;;14.82;6.78;;;16.40;99.90;;;;;;5040351;28;20164;-86
2021/08/28 03:41:19;;;;;;;18.17;6.47;;;16.30;99.90;;;;;;5030189;28;20183;-86
2021/08/28 03:43:45;;;;;;;25.40;7.55;;;16.30;99.90;;;;;;5016061;28;20528;-85
2021/08/28 03:46:13;;;;;;;12.95;7.13;;;16.30;99.90;;;;;;5015729;28;20164;-86
2021/08/28 03:48:40;;;;;;;11.45;6.97;;;16.30;99.90;;;;;;5015411;28;20651;-85
2021/08/28 03:51:06;;;;;;;15.27;6.47;;;16.20;99.90;;;;;;5016482;28;20196;-86
2021/08/28 03:53:31;;;;;;;16.33;6.63;;;15.90;99.90;;;;;;5015223;28;20571;-86
2021/08/28 03:55:57;;;;;;;16.17;6.90;;;16.00;99.90;;;;;;5015616;28;20177;-86
2021/08/28 03:58:26;;;;;;;14.68;7.68;;;16.00;99.90;;;;;;5015384;28;20196;-86
2021/08/28 04:00:53;;;;;;;16.25;7.38;;;16.00;99.90;;;;;;5015348;28;20169;-86
2021/08/28 04:03:19;;;;;;;15.88;7.90;;;16.00;99.90;;;;;;5015461;28;20596;-86
2021/08/28 04:05:45;;;;;;;17.58;7.57;;;15.90;99.90;;;;;;5015426;28;20179;-86
2021/08/28 04:08:12;;;;;;;18.23;7.80;;;15.80;99.90;;;;;;5016582;28;20192;-86
2021/08/28 04:10:37;;;;;;;19.55;8.82;;;15.80;99.90;;;;;;5015167;28;20628;-85
2021/08/28 04:13:03;;;;;;;15.60;6.65;;;15.80;99.90;;;;;;5014996;28;20219;-86
2021/08/28 04:15:29;;;;;;;25.45;8.70;;;15.90;99.90;;;;;;5015298;28;20167;-86
2021/08/28 04:17:56;;;;;;;17.60;7.28;;;15.90;99.90;;;;;;5015987;28;20197;-86
2021/08/28 04:20:21;;;;;;;20.08;8.27;;;15.80;99.90;;;;;;5015041;28;20179;-87
2021/08/28 04:22:47;;;;;;;18.17;7.55;;;15.80;99.90;;;;;;5015134;28;20173;-86
2021/08/28 04:25:13;;;;;;;20.17;8.77;;;15.80;99.90;;;;;;5014956;28;20200;-86
2021/08/28 04:27:39;;;;;;;17.60;8.98;;;15.90;99.90;;;;;;5014819;28;20216;-87
2021/08/28 04:30:06;;;;;;;17.83;8.27;;;15.80;99.90;;;;;;5015882;28;20179;-86
2021/08/28 04:32:32;;;;;;;21.13;7.60;;;15.90;99.90;;;;;;5014711;28;20287;-86
2021/08/28 04:34:58;;;;;;;18.88;8.18;;;15.80;99.90;;;;;;5014869;28;20215;-86
2021/08/28 04:37:24;;;;;;;14.05;7.68;;;15.80;99.90;;;;;;5014539;28;20220;-86
2021/08/28 04:39:49;;;;;;;26.52;9.75;;;15.80;99.90;;;;;;5014561;28;20168;-86
2021/08/28 04:42:15;;;;;;;20.40;8.27;;;15.80;99.90;;;;;;5014129;28;20226;-86
2021/08/28 04:44:41;;;;;;;14.70;9.07;;;15.80;99.90;;;;;;5014910;28;20505;-88
2021/08/28 04:47:06;;;;;;;19.52;9.30;;;15.90;99.90;;;;;;5014855;28;20219;-85
2021/08/28 04:49:32;;;;;;;14.40;10.15;;;15.90;99.90;;;;;;5014511;28;20231;-85
2021/08/28 04:51:59;;;;;;;24.48;8.65;;;15.90;99.90;;;;;;5014363;28;20207;-86
2021/08/28 04:54:25;;;;;;;13.90;8.70;;;15.90;99.90;;;;;;5014638;28;20620;-86
2021/08/28 04:56:50;;;;;;;18.70;8.63;;;15.90;99.90;;;;;;5014576;28;20283;-85
2021/08/28 04:59:16;;;;;;;10.00;7.95;;;15.90;99.90;;;;;;5014833;28;20215;-86
2021/08/28 05:01:42;;;;;;;11.85;8.18;;;16.10;99.90;;;;;;5015048;28;20171;-87
2021/08/28 05:04:08;;;;;;;17.60;8.02;;;16.20;99.90;;;;;;5014884;28;20176;-87
2021/08/28 05:06:33;;;;;;;19.65;8.27;;;16.30;99.90;;;;;;5014930;28;20695;-86
2021/08/28 05:08:59;;;;;;;13.02;7.82;;;16.30;99.90;;;;;;5015014;28;20212;-87
2021/08/28 05:11:25;;;;;;;11.40;7.78;;;16.10;99.90;;;;;;5014450;28;20201;-87
2021/08/28 05:13:50;;;;;;;15.57;7.40;;;16.00;99.90;;;;;;5014498;28;20198;-86
2021/08/28 05:16:16;;;;;;;23.45;6.53;;;16.10;99.90;;;;;;5014571;28;20165;-87
2021/08/28 05:18:42;;;;;;;10.68;8.10;;;16.20;99.90;;;;;;5014840;28;20181;-87
2021/08/28 05:21:07;;;;;;;15.32;6.38;;;16.40;99.90;;;;;;5014415;28;20164;-87
2021/08/28 05:23:33;;;;;;;10.13;6.80;;;16.40;99.90;;;;;;5014634;28;20620;-86
2021/08/28 05:25:59;;;;;;;13.70;6.72;;;16.40;99.90;;;;;;5014422;28;20203;-87
2021/08/28 05:28:24;;;;;;;23.85;7.70;;;16.20;99.90;;;;;;5014043;28;20243;-86
2021/08/28 05:30:50;;;;;;;21.15;7.45;;;16.30;99.90;;;;;;5014266;28;20246;-87
2021/08/28 05:33:16;;;;;;;16.23;6.75;;;16.30;99.90;;;;;;5014588;28;20210;-87
2021/08/28 05:35:42;;;;;;;26.00;7.45;;;16.20;99.90;;;;;;5014217;28;20481;-87
2021/08/28 05:38:07;;;;;;;33.65;8.10;;;16.20;99.90;;;;;;5013846;28;20544;-87
2021/08/28 05:40:33;;;;;;;29.40;7.55;;;16.10;99.90;;;;;;5013991;28;20173;-86
2021/08/28 05:42:59;;;;;;;24.20;7.18;;;16.10;99.90;;;;;;5013924;28;20183;-87
2021/08/28 05:45:25;;;;;;;28.58;7.20;;;16.30;99.90;;;;;;5013491;28;20168;-85
2021/08/28 05:47:50;;;;;;;12.13;7.10;;;16.30;99.90;;;;;;5013555;28;20176;-87
2021/08/28 05:50:17;;;;;;;18.77;6.35;;;16.50;99.90;;;;;;5021242;28;20183;-86
2021/08/28 05:52:43;;;;;;;11.90;5.28;;;16.50;99.90;;;;;;5023039;28;20634;-88
2021/08/28 05:55:12;;;;;;;20.65;6.88;;;16.60;99.90;;;;;;5026695;28;20366;-87
2021/08/28 05:57:38;;;;;;;28.55;7.25;;;16.60;99.90;;;;;;5024698;28;20283;-87
2021/08/28 06:00:05;;;;;;;23.83;6.68;;;16.70;99.90;;;;;;5023957;28;20183;-86
2021/08/28 06:02:31;;;;;;;12.30;6.15;;;16.80;99.90;;;;;;5026996;28;20177;-86
2021/08/28 06:04:57;;;;;;;14.80;5.25;;;16.90;99.90;;;;;;5027715;28;20179;-87
2021/08/28 06:07:22;;;;;;;14.57;4.82;;;17.10;99.90;;;;;;5025857;28;20185;-87
2021/08/28 06:09:48;;;;;;;12.45;4.93;;;17.30;99.90;;;;;;5026354;28;20168;-87
2021/08/28 06:12:13;;;;;;;7.78;4.47;;;17.30;99.90;;;;;;5022672;28;20219;-87
2021/08/28 06:14:39;;;;;;;11.93;5.30;;;17.10;99.90;;;;;;5020498;28;20177;-87
2021/08/28 06:17:05;;;;;;;9.63;4.68;;;17.20;99.90;;;;;;5022007;28;20195;-86
2021/08/28 06:19:30;;;;;;;6.88;4.70;;;17.50;99.90;;;;;;5018011;28;20173;-87
2021/08/28 06:21:56;;;;;;;8.48;4.38;;;17.60;99.90;;;;;;5013628;28;20176;-87
2021/08/28 06:24:21;;;;;;;11.63;4.07;;;17.60;99.90;;;;;;5013615;28;20169;-87
2021/08/28 06:26:47;;;;;;;10.82;4.30;;;17.70;99.90;;;;;;5012921;28;20721;-87
2021/08/28 06:29:13;;;;;;;17.30;4.38;;;17.70;99.90;;;;;;5012800;28;20188;-84
2021/08/28 06:31:38;;;;;;;10.60;3.85;;;17.60;99.90;;;;;;5012232;28;20239;-87
2021/08/28 06:34:04;;;;;;;9.80;3.95;;;17.70;99.90;;;;;;5012539;28;20169;-86
2021/08/28 06:36:30;;;;;;;11.38;4.47;;;17.70;99.90;;;;;;5012972;28;20556;-89
2021/08/28 06:38:55;;;;;;;15.85;5.07;;;17.80;99.90;;;;;;5013011;28;20169;-85
2021/08/28 06:41:21;;;;;;;6.30;3.95;;;17.60;99.90;;;;;;5013880;28;20218;-87
2021/08/28 06:43:47;;;;;;;11.63;4.55;;;17.50;99.90;;;;;;5012028;28;20268;-83
2021/08/28 06:46:12;;;;;;;14.07;4.10;;;17.60;99.90;;;;;;5011667;28;20175;-83
2021/08/28 06:48:38;;;;;;;6.85;3.70;;;17.80;99.90;;;;;;5011243;28;20184;-82
2021/08/28 06:51:03;;;;;;;8.68;4.28;;;17.80;99.90;;;;;;5011036;28;20191;-81
2021/08/28 06:53:29;;;;;;;8.43;3.63;;;17.80;99.90;;;;;;5011303;28;20215;-81
2021/08/28 06:55:55;;;;;;;10.85;4.10;;;17.70;99.90;;;;;;5011221;28;20536;-80
2021/08/28 06:58:21;;;;;;;15.20;3.50;;;17.50;99.90;;;;;;5011113;28;20265;-81
2021/08/28 07:00:46;;;;;;;13.65;3.65;;;17.60;99.90;;;;;;5011043;28;20164;-80
2021/08/28 07:03:12;;;;;;;9.45;4.03;;;17.50;99.90;;;;;;5010832;28;20176;-80
2021/08/28 07:05:37;;;;;;;12.32;3.90;;;17.40;99.90;;;;;;5014105;28;20194;-80
2021/08/28 07:08:03;;;;;;;10.90;3.88;;;17.40;99.90;;;;;;5015782;28;20192;-82
2021/08/28 07:10:29;;;;;;;7.03;4.50;;;17.40;99.90;;;;;;5014650;28;20169;-81
2021/08/28 07:12:55;;;;;;;8.20;4.80;;;17.50;99.90;;;;;;5014158;28;20254;-80
2021/08/28 07:15:20;;;;;;;12.98;4.85;;;17.40;99.90;;;;;;5014605;28;20165;-81
2021/08/28 07:17:46;;;;;;;7.85;3.88;;;17.50;99.90;;;;;;5014393;28;20563;-81
2021/08/28 07:20:12;;;;;;;10.88;4.03;;;17.50;99.90;;;;;;5014714;28;20227;-81
2021/08/28 07:22:38;;;;;;;6.85;3.58;;;17.70;99.90;;;;;;5016195;28;20164;-80
2021/08/28 07:25:04;;;;;;;13.23;3.63;;;17.90;99.90;;;;;;5014555;28;20181;-82
2021/08/28 07:27:30;;;;;;;9.90;4.25;;;18.10;99.90;;;;;;5015537;28;20208;-81
2021/08/28 07:29:55;;;;;;;9.25;3.22;;;18.10;99.90;;;;;;5014610;28;20544;-82
2021/08/28 07:32:21;;;;;;;9.30;3.75;;;18.20;99.90;;;;;;5014832;28;20220;-82
2021/08/28 07:34:47;;;;;;;9.60;3.50;;;18.40;99.90;;;;;;5014703;28;20179;-82
2021/08/28 07:37:13;;;;;;;11.68;3.95;;;18.60;99.90;;;;;;5015762;28;20196;-82
2021/08/28 07:39:39;;;;;;;7.95;3.38;;;19.10;99.90;;;;;;5006260;28;20183;-83
2021/08/28 07:42:05;;;;;;;7.22;3.67;;;19.10;99.90;;;;;;5012012;28;20176;-84
2021/08/28 07:44:31;;;;;;;7.72;3.80;;;18.80;99.90;;;;;;5012664;28;20251;-82
2021/08/28 07:46:57;;;;;;;6.95;3.80;;;18.80;99.90;;;;;;5013112;28;20287;-82
2021/08/28 07:49:23;;;;;;;7.38;3.60;;;19.00;99.90;;;;;;5014344;28;20728;-82
2021/08/28 07:51:48;;;;;;;8.98;3.47;;;19.00;99.90;;;;;;5013964;28;20346;-81
2021/08/28 07:54:14;;;;;;;7.25;3.40;;;18.80;99.90;;;;;;5013447;28;20164;-82
2021/08/28 07:56:40;;;;;;;10.55;4.05;;;18.90;99.90;;;;;;5014759;28;20302;-82
2021/08/28 07:59:06;;;;;;;3.30;3.00;;;19.10;99.90;;;;;;5010356;28;20180;-81
2021/08/28 08:01:32;;;;;;;5.28;3.58;;;19.10;99.90;;;;;;4994582;28;20169;-82
2021/08/28 08:03:57;;;;;;;4.65;3.83;;;19.10;99.90;;;;;;4994750;28;20166;-81
2021/08/28 08:06:23;;;;;;;8.02;3.25;;;19.40;99.90;;;;;;4993678;28;20169;-81
2021/08/28 08:08:49;;;;;;;13.93;3.65;;;19.40;99.90;;;;;;4993903;28;20169;-81
2021/08/28 08:11:16;;;;;;;6.47;2.97;;;19.20;99.90;;;;;;4993958;28;20256;-80
2021/08/28 08:13:43;;;;;;;7.25;3.72;;;19.10;99.90;;;;;;4993879;28;20212;-82
2021/08/28 08:16:09;;;;;;;6.47;3.05;;;19.10;99.90;;;;;;4992710;28;20813;-83
2021/08/28 08:18:35;;;;;;;6.72;3.40;;;19.20;99.90;;;;;;4995199;28;20205;-83
2021/08/28 08:21:01;;;;;;;10.88;3.47;;;19.30;99.90;;;;;;4995009;28;20578;-81
2021/08/28 08:23:27;;;;;;;12.30;3.42;;;19.10;99.90;;;;;;4992967;28;20223;-81
2021/08/28 08:25:52;;;;;;;11.43;3.22;;;19.40;99.90;;;;;;4992881;28;20602;-82
2021/08/28 08:28:18;;;;;;;5.40;2.88;;;19.60;99.90;;;;;;4994815;28;20217;-81
2021/08/28 08:30:44;;;;;;;7.68;2.55;;;19.60;99.90;;;;;;4993125;28;20177;-81
2021/08/28 08:33:10;;;;;;;3.92;2.63;;;19.60;99.90;;;;;;4993602;28;20200;-82
2021/08/28 08:35:35;;;;;;;6.72;2.65;;;19.40;99.90;;;;;;4994830;28;20180;-81
2021/08/28 08:38:02;;;;;;;9.40;2.83;;;19.60;99.90;;;;;;5010945;28;20684;-82
2021/08/28 08:40:30;;;;;;;3.30;1.88;;;19.60;99.90;;;;;;5012934;28;20172;-80
2021/08/28 08:42:56;;;;;;;8.48;2.58;;;19.30;99.90;;;;;;5012876;28;20168;-81
2021/08/28 08:45:26;;;;;;;4.55;2.05;;;19.20;99.90;;;;;;5012291;28;20573;-81
2021/08/28 08:47:53;;;;;;;6.55;2.55;;;19.20;99.90;;;;;;5012644;28;20556;-81
2021/08/28 08:50:20;;;;;;;4.18;2.53;;;19.10;99.90;;;;;;5012318;28;20322;-80
2021/08/28 08:52:53;;;;;;;8.68;2.50;;;19.00;99.90;;;;;;5013299;28;20212;-82
2021/08/28 08:55:19;;;;;;;5.03;2.92;;;19.10;99.90;;;;;;5012656;28;20184;-83
2021/08/28 08:57:45;;;;;;;4.03;2.75;;;19.30;99.90;;;;;;5013467;28;20192;-80
2021/08/28 09:00:11;;;;;;;2.25;1.92;;;19.40;99.90;;;;;;5012923;28;20188;-82
2021/08/28 09:02:37;;;;;;;5.03;2.20;;;19.50;99.90;;;;;;5012804;28;20268;-82
2021/08/28 09:05:04;;;;;;;4.63;2.38;;;19.80;99.90;;;;;;5013373;28;20227;-81
2021/08/28 09:07:30;;;;;;;5.50;2.00;;;20.00;99.90;;;;;;5012810;28;20204;-86
2021/08/28 09:09:56;;;;;;;1.88;1.63;;;20.20;99.90;;;;;;5012294;28;20177;-83
2021/08/28 09:12:21;;;;;;;2.38;1.70;;;20.20;99.90;;;;;;5012834;28;20303;-86
2021/08/28 09:14:57;;;;;;;4.68;1.98;;;20.30;99.90;;;;;;5013886;28;20505;-87
2021/08/28 09:17:23;;;;;;;3.42;1.95;;;20.50;99.90;;;;;;5014958;28;20215;-85
2021/08/28 09:19:50;;;;;;;3.40;1.58;;;20.80;99.90;;;;;;5016952;28;20215;-87
2021/08/28 09:22:26;;;;;;;6.57;2.35;;;21.20;99.90;;;;;;5023942;28;20164;-85
2021/08/28 09:24:55;;;;;;;2.17;1.80;;;21.40;99.90;;;;;;5022924;28;20648;-85
2021/08/28 09:27:50;;;;;;;9.27;2.13;;;21.40;99.90;;;;;;5020048;28;20208;-86
2021/08/28 09:30:27;;;;;;;5.55;1.80;;;21.40;99.90;;;;;;5015526;28;20173;-87
2021/08/28 09:32:56;;;;;;;5.68;2.15;;;21.40;99.90;;;;;;5014209;28;20276;-86
2021/08/28 09:35:25;;;;;;;7.47;2.20;;;21.60;99.90;;;;;;5028326;28;20165;-88
2021/08/28 09:37:53;;;;;;;4.78;2.40;;;21.60;99.90;;;;;;5030439;28;20223;-88
2021/08/28 09:40:22;;;;;;;3.20;1.88;;;21.20;99.90;;;;;;5017459;28;20248;-83
2021/08/28 09:42:53;;;;;;;2.58;1.70;;;20.80;99.90;;;;;;5020028;28;20199;-84
2021/08/28 09:45:23;;;;;;;2.58;1.92;;;20.20;99.90;;;;;;5017404;28;20267;-86
2021/08/28 09:47:50;;;;;;;2.97;1.80;;;19.50;99.90;;;;;;5019888;28;20183;-84
2021/08/28 09:50:29;;;;;;;3.13;2.25;;;19.10;99.90;;;;;;5027464;28;20165;-86
2021/08/28 09:52:59;;;;;;;2.95;2.17;;;19.20;99.90;;;;;;5021133;28;20251;-86
2021/08/28 09:55:28;;;;;;;5.70;2.50;;;19.30;99.90;;;;;;5017840;28;20176;-85
2021/08/28 09:57:53;;;;;;;4.82;2.53;;;19.50;99.90;;;;;;5002816;28;20307;-85
2021/08/28 10:00:19;;;;;;;6.70;2.20;;;19.80;99.90;;;;;;4999565;28;20180;-86
2021/08/28 10:03:02;;;;;;;8.73;2.28;;;20.20;99.90;;;;;;4993365;28;20173;-86
2021/08/28 10:05:29;;;;;;;12.32;2.38;;;20.50;99.90;;;;;;4996773;28;20181;-86
2021/08/28 10:07:57;;;;;;;4.82;1.63;;;20.80;99.90;;;;;;5013292;28;20200;-86
2021/08/28 10:10:23;;;;;;;5.38;2.53;;;21.00;99.90;;;;;;5013053;28;20165;-86
2021/08/28 10:12:50;;;;;;;3.33;1.95;;;21.20;99.90;;;;;;5013656;28;20219;-86
2021/08/28 10:15:17;;;;;;;6.15;1.95;;;21.40;99.90;;;;;;5012550;28;20251;-86
2021/08/28 10:17:43;;;;;;;3.55;1.95;;;21.80;99.90;;;;;;5012513;28;20192;-86
2021/08/28 10:20:10;;;;;;;3.70;1.95;;;21.60;99.90;;;;;;5011268;28;20176;-84
2021/08/28 10:22:40;;;;;;;4.75;2.42;;;21.40;99.90;;;;;;5011880;28;20196;-86
2021/08/28 10:25:12;;;;;;;8.77;2.65;;;21.30;99.90;;;;;;5012339;28;20168;-87
2021/08/28 10:27:38;;;;;;;4.07;1.92;;;21.20;99.90;;;;;;5011478;28;20235;-86
2021/08/28 10:30:09;;;;;;;4.22;1.98;;;21.30;99.90;;;;;;5011839;28;20597;-85
2021/08/28 10:32:35;;;;;;;5.35;2.10;;;21.40;99.90;;;;;;5013109;28;20214;-84
2021/08/28 10:35:02;;;;;;;9.32;2.45;;;21.20;99.90;;;;;;5012175;28;20233;-87
2021/08/28 10:37:28;;;;;;;6.05;2.05;;;21.30;99.90;;;;;;5012186;28;20211;-88
2021/08/28 10:39:54;;;;;;;3.88;1.90;;;21.40;99.90;;;;;;5010924;28;20532;-87
2021/08/28 10:42:21;;;;;;;4.45;1.90;;;21.40;99.90;;;;;;5010022;28;20543;-87
2021/08/28 10:44:51;;;;;;;3.17;2.10;;;21.50;99.90;;;;;;5011516;28;20172;-86
2021/08/28 10:47:27;;;;;;;5.40;2.42;;;21.90;99.90;;;;;;5011431;28;20241;-86
2021/08/28 10:49:57;;;;;;;3.00;1.95;;;21.70;99.90;;;;;;5011549;28;20164;-86
2021/08/28 10:52:25;;;;;;;3.13;2.25;;;21.80;99.90;;;;;;5015112;23;20223;-83
2021/08/28 10:54:55;;;;;;;6.95;2.25;;;22.10;99.90;;;;;;4993742;28;20177;-85
2021/08/28 10:57:26;;;;;;;2.22;1.70;;;22.10;99.90;;;;;;4993567;28;20193;-83
2021/08/28 11:00:08;;;;;;;3.13;1.58;;;22.10;99.90;;;;;;4992803;28;20169;-83
2021/08/28 11:02:58;;;;;;;3.38;2.20;;;21.70;99.90;;;;;;4993393;28;20169;-82
2021/08/28 11:05:30;;;;;;;5.95;2.17;;;21.40;99.90;;;;;;4990548;28;20193;-83
2021/08/28 11:08:16;;;;;;;3.47;2.05;;;21.20;99.90;;;;;;4993604;28;20236;-83
2021/08/28 11:10:41;;;;;;;2.70;1.90;;;21.60;99.90;;;;;;4993716;28;20161;-84
2021/08/28 11:13:07;;;;;;;2.47;2.00;;;21.60;99.90;;;;;;4992408;28;20323;-82
2021/08/28 11:15:33;;;;;;;10.07;2.15;;;21.50;99.90;;;;;;4993635;28;20248;-83
2021/08/28 11:18:22;;;;;;;4.20;2.15;;;21.50;99.90;;;;;;4991621;28;20684;-82
2021/08/28 11:20:51;;;;;;;6.50;2.35;;;21.50;99.90;;;;;;4984313;28;20256;-82
2021/08/28 11:23:19;;;;;;;2.97;2.00;;;21.40;99.90;;;;;;4992841;28;20177;-84
2021/08/28 11:25:51;;;;;;;5.20;2.15;;;21.20;99.90;;;;;;4992247;28;20648;-83
2021/08/28 11:28:19;;;;;;;2.92;1.90;;;21.20;99.90;;;;;;4993471;28;20200;-83
2021/08/28 11:30:45;;;;;;;2.33;2.00;;;21.40;99.90;;;;;;4992869;28;20166;-83
2021/08/28 11:33:20;;;;;;;6.10;2.22;;;21.70;99.90;;;;;;4992218;28;20621;-86
2021/08/28 11:35:58;;;;;;;3.50;1.98;;;21.90;99.90;;;;;;4992858;28;20180;-86
2021/08/28 11:38:50;;;;;;;6.70;2.35;;;22.00;99.90;;;;;;4992445;28;20193;-87
2021/08/28 11:41:26;;;;;;;5.38;2.00;;;22.20;99.90;;;;;;4992650;28;20166;-88
2021/08/28 11:43:54;;;;;;;3.10;2.28;;;22.20;99.90;;;;;;4992514;28;20176;-87
2021/08/28 11:46:26;;;;;;;3.92;2.05;;;21.70;99.90;;;;;;4991877;28;20178;-85
2021/08/28 11:48:52;;;;;;;3.38;2.30;;;21.20;99.90;;;;;;4992600;28;20256;-85
2021/08/28 11:51:26;;;;;;;8.18;2.30;;;21.30;99.90;;;;;;4993344;28;20239;-86
2021/08/28 11:53:57;;;;;;;4.90;2.15;;;21.60;99.90;;;;;;4995402;28;20267;-83
2021/08/28 11:56:25;;;;;;;3.72;2.72;;;21.60;99.90;;;;;;4995813;28;20173;-80
2021/08/28 11:59:03;;;;;;;5.20;2.70;;;21.70;99.90;;;;;;4994729;28;20256;-80
2021/08/28 12:01:38;;;;;;;4.53;2.25;;;21.50;99.90;;;;;;4994864;28;20536;-82
2021/08/28 12:04:12;;;;;;;4.30;2.47;;;21.30;99.90;;;;;;4994084;28;20181;-80
2021/08/28 12:06:41;;;;;;;6.97;2.55;;;21.30;99.90;;;;;;4995223;28;20193;-80
2021/08/28 12:09:09;;;;;;;3.22;2.53;;;21.20;99.90;;;;;;4995687;28;20165;-80
2021/08/28 12:11:37;;;;;;;4.25;2.80;;;21.20;99.90;;;;;;4994351;28;20231;-82
2021/08/28 12:14:04;;;;;;;7.18;2.95;;;21.30;99.90;;;;;;4994145;28;20180;-81
2021/08/28 12:16:32;;;;;;;3.80;2.25;;;21.40;99.90;;;;;;4994624;28;20614;-81
2021/08/28 12:19:09;;;;;;;4.57;2.67;;;21.50;99.90;;;;;;4995286;28;20173;-81
2021/08/28 12:21:48;;;;;;;4.50;2.55;;;21.90;99.90;;;;;;4993728;28;20668;-81
2021/08/28 12:24:15;;;;;;;4.50;3.08;;;22.40;99.90;;;;;;4995699;28;20165;-82
2021/08/28 12:26:42;;;;;;;3.47;2.50;;;22.60;99.90;;;;;;4995573;28;20181;-86
2021/08/28 12:29:09;;;;;;;3.67;2.17;;;22.50;99.90;;;;;;4993966;28;20181;-81
2021/08/28 12:31:35;;;;;;;4.13;2.00;;;22.70;99.90;;;;;;4995002;28;20181;-80
2021/08/28 12:34:18;;;;;;;7.60;2.95;;;22.80;99.90;;;;;;4993846;28;20208;-81
2021/08/28 12:36:46;;;;;;;6.70;3.08;;;22.50;99.90;;;;;;4994263;28;20224;-80
2021/08/28 12:39:12;;;;;;;7.57;3.08;;;22.40;99.90;;;;;;4993539;28;20173;-81
2021/08/28 12:41:38;;;;;;;4.20;2.42;;;22.60;99.90;;;;;;4994596;28;20176;-81
2021/08/28 12:44:05;;;;;;;8.90;2.20;;;22.50;99.90;;;;;;4994832;28;20197;-81
2021/08/28 12:46:37;;;;;;;7.32;2.78;;;22.60;99.90;;;;;;4995211;28;20271;-82